createdAt,value
2023-02-19T00:00:29.590Z,91.3
2023-02-19T00:01:29.609Z,91.8
2023-02-19T00:02:29.635Z,91.4
2023-02-19T00:03:29.739Z,91.5
2023-02-19T00:04:29.636Z,91.8
2023-02-19T00:05:29.633Z,91.6
2023-02-19T00:06:29.640Z,91.5
2023-02-19T00:07:29.655Z,91.4
2023-02-19T00:08:29.652Z,91.1
2023-02-19T00:09:29.679Z,91.5
2023-02-19T00:10:29.682Z,91.9
2023-02-19T00:11:29.699Z,91.9
2023-02-19T00:12:29.687Z,91.6
2023-02-19T00:13:29.714Z,91.0
2023-02-19T00:14:29.715Z,91.3
2023-02-19T00:15:29.830Z,91.0
2023-02-19T00:16:29.739Z,91.4
2023-02-19T00:17:29.744Z,91.4
2023-02-19T00:18:29.752Z,91.6
2023-02-19T00:19:29.781Z,91.6
2023-02-19T00:20:29.782Z,91.4
2023-02-19T00:21:29.791Z,91.6
2023-02-19T00:22:29.798Z,91.0
2023-02-19T00:23:29.800Z,91.0
2023-02-19T00:24:29.810Z,91.0
2023-02-19T00:25:29.829Z,90.8
2023-02-19T00:26:29.851Z,90.8
2023-02-19T00:27:29.839Z,91.1
2023-02-19T00:28:29.860Z,90.9
2023-02-19T00:29:29.861Z,91.2
2023-02-19T00:30:30.037Z,91.0
2023-02-19T00:31:33.779Z,91.0
2023-02-19T00:32:29.877Z,91.1
2023-02-19T00:33:29.885Z,90.8
2023-02-19T00:34:29.902Z,91.2
2023-02-19T00:35:29.909Z,90.8
2023-02-19T00:36:29.920Z,91.1
2023-02-19T00:37:29.957Z,91.2
2023-02-19T00:38:29.930Z,90.7
2023-02-19T00:39:29.937Z,91.3
2023-02-19T00:40:29.968Z,91.0
2023-02-19T00:41:29.961Z,91.1
2023-02-19T00:42:29.980Z,90.5
2023-02-19T00:43:29.986Z,90.5
2023-02-19T00:44:29.998Z,90.5
2023-02-19T00:45:30.002Z,90.8
2023-02-19T00:46:30.276Z,90.9
2023-02-19T00:47:30.049Z,91.1
2023-02-19T00:48:30.058Z,91.0
2023-02-19T00:49:30.050Z,91.0
2023-02-19T00:50:30.056Z,90.9
2023-02-19T00:51:30.089Z,91.0
2023-02-19T00:52:30.093Z,91.1
2023-02-19T00:53:30.095Z,91.1
2023-02-19T00:54:30.094Z,91.3
2023-02-19T00:55:30.102Z,91.2
2023-02-19T00:56:30.125Z,91.1
2023-02-19T00:57:30.128Z,91.2
2023-02-19T00:58:30.146Z,91.3
2023-02-19T00:59:30.136Z,91.3
2023-02-19T01:00:30.183Z,91.3
2023-02-19T01:01:30.226Z,91.2
2023-02-19T01:02:30.168Z,91.1
2023-02-19T01:03:30.180Z,90.9
2023-02-19T01:04:30.299Z,91.0
2023-02-19T01:05:30.193Z,91.0
2023-02-19T01:06:30.197Z,91.0
2023-02-19T01:07:30.206Z,91.1
2023-02-19T01:08:30.214Z,90.9
2023-02-19T01:09:30.232Z,91.2
2023-02-19T01:10:30.249Z,91.3
2023-02-19T01:11:30.241Z,91.3
2023-02-19T01:12:30.251Z,91.4
2023-02-19T01:13:30.281Z,91.4
2023-02-19T01:14:30.289Z,91.3
2023-02-19T01:15:30.284Z,91.3
2023-02-19T01:16:30.358Z,91.4
2023-02-19T01:17:30.305Z,91.2
2023-02-19T01:18:30.326Z,91.3
2023-02-19T01:19:30.317Z,90.8
2023-02-19T01:20:30.332Z,90.7
2023-02-19T01:21:30.377Z,91.0
2023-02-19T01:22:30.358Z,91.1
2023-02-19T01:23:30.373Z,91.2
2023-02-19T01:24:30.369Z,91.4
2023-02-19T01:25:30.390Z,91.5
2023-02-19T01:26:30.438Z,91.5
2023-02-19T01:27:30.404Z,91.8
2023-02-19T01:28:30.414Z,91.8
2023-02-19T01:29:30.433Z,91.9
2023-02-19T01:30:30.546Z,91.9
2023-02-19T01:31:31.017Z,92.1
2023-02-19T01:32:30.446Z,92.2
2023-02-19T01:33:30.467Z,92.3
2023-02-19T01:34:30.478Z,92.2
2023-02-19T01:35:30.477Z,92.3
2023-02-19T01:36:30.503Z,92.2
2023-02-19T01:37:30.498Z,92.2
2023-02-19T01:38:30.515Z,91.9
2023-02-19T01:39:30.552Z,91.8
2023-02-19T01:40:30.599Z,91.9
2023-02-19T01:41:30.556Z,91.7
2023-02-19T01:42:30.649Z,91.8
2023-02-19T01:43:30.574Z,92.0
2023-02-19T01:44:30.607Z,91.9
2023-02-19T01:45:30.588Z,91.3
2023-02-19T01:46:30.770Z,91.1
2023-02-19T01:47:30.600Z,91.4
2023-02-19T01:48:30.609Z,91.8
2023-02-19T01:49:30.702Z,92.3
2023-02-19T02:07:31.176Z,91.9
2023-02-19T02:08:30.826Z,91.8
2023-02-19T02:09:30.857Z,92.1
2023-02-19T02:10:30.847Z,91.9
2023-02-19T02:11:30.862Z,91.5
2023-02-19T02:12:30.891Z,91.6
2023-02-19T02:13:30.884Z,91.5
2023-02-19T02:14:30.885Z,91.8
2023-02-19T02:15:30.912Z,91.9
2023-02-19T02:16:31.076Z,92.0
2023-02-19T02:17:30.931Z,91.6
2023-02-19T02:18:30.929Z,91.4
2023-02-19T02:19:30.938Z,91.6
2023-02-19T02:20:31.097Z,91.7
2023-02-19T02:21:30.949Z,91.7
2023-02-19T02:22:30.965Z,91.4
2023-02-19T02:23:30.963Z,91.3
2023-02-19T02:24:30.976Z,91.4
2023-02-19T02:25:30.976Z,91.6
2023-02-19T02:26:31.003Z,91.8
2023-02-19T02:27:30.987Z,91.7
2023-02-19T02:28:31.049Z,91.6
2023-02-19T02:29:31.006Z,91.2
2023-02-19T02:30:31.193Z,91.3
2023-02-19T02:31:31.366Z,91.3
2023-02-19T02:32:31.051Z,91.5
2023-02-19T02:33:31.051Z,91.6
2023-02-19T02:34:31.048Z,91.7
2023-02-19T02:35:31.060Z,91.6
2023-02-19T02:36:31.079Z,91.8
2023-02-19T02:37:31.090Z,91.9
2023-02-19T02:38:31.108Z,91.7
2023-02-19T02:39:31.103Z,91.2
2023-02-19T02:40:31.115Z,91.4
2023-02-19T02:41:31.134Z,91.3
2023-02-19T02:42:31.141Z,91.3
2023-02-19T02:43:31.144Z,91.1
2023-02-19T02:44:31.153Z,91.1
2023-02-19T02:45:31.276Z,91.1
2023-02-19T02:46:31.179Z,91.1
2023-02-19T02:47:31.210Z,91.3
2023-02-19T02:48:31.221Z,91.3
2023-02-19T02:49:31.200Z,91.1
2023-02-19T02:50:31.215Z,91.2
2023-02-19T02:51:31.256Z,91.2
2023-02-19T02:52:31.242Z,91.2
2023-02-19T02:53:31.245Z,91.3
2023-02-19T02:54:31.268Z,91.3
2023-02-19T02:55:31.326Z,91.5
2023-02-19T02:56:31.333Z,91.4
2023-02-19T02:57:31.278Z,91.4
2023-02-19T02:58:31.381Z,91.5
2023-02-19T02:59:31.303Z,91.5
2023-02-19T03:00:31.310Z,91.5
2023-02-19T03:01:31.321Z,91.5
2023-02-19T03:02:31.695Z,91.6
2023-02-19T03:03:31.354Z,91.6
2023-02-19T03:04:31.360Z,91.5
2023-02-19T03:05:31.377Z,91.6
2023-02-19T03:06:31.384Z,91.6
2023-02-19T03:07:31.388Z,91.5
2023-02-19T03:08:31.410Z,91.6
2023-02-19T03:09:31.423Z,91.7
2023-02-19T03:10:31.426Z,91.7
2023-02-19T03:11:31.432Z,91.7
2023-02-19T03:12:31.445Z,91.7
2023-02-19T03:13:31.465Z,91.8
2023-02-19T03:14:31.489Z,91.9
2023-02-19T03:15:31.469Z,92.0
2023-02-19T03:16:31.715Z,92.1
2023-02-19T03:17:31.504Z,92.1
2023-02-19T03:18:31.498Z,92.2
2023-02-19T03:19:31.516Z,92.2
2023-02-19T03:20:31.508Z,92.2
2023-02-19T03:21:31.528Z,92.2
2023-02-19T03:22:31.558Z,92.2
2023-02-19T03:23:31.549Z,92.2
2023-02-19T03:24:31.569Z,92.1
2023-02-19T03:25:31.582Z,92.2
2023-02-19T03:26:31.594Z,92.2
2023-02-19T03:27:31.616Z,92.2
2023-02-19T03:28:31.628Z,92.2
2023-02-19T03:29:31.638Z,92.3
2023-02-19T03:30:31.824Z,92.3
2023-02-19T03:31:31.898Z,92.4
2023-02-19T03:32:31.634Z,92.4
2023-02-19T03:33:31.645Z,92.4
2023-02-19T03:34:31.659Z,92.4
2023-02-19T03:35:31.678Z,92.3
2023-02-19T03:36:31.695Z,92.3
2023-02-19T03:37:31.698Z,92.3
2023-02-19T03:38:31.701Z,92.0
2023-02-19T03:39:31.720Z,92.2
2023-02-19T03:40:31.753Z,92.2
2023-02-19T03:41:31.729Z,92.2
2023-02-19T03:42:31.746Z,92.1
2023-02-19T03:43:31.762Z,92.1
2023-02-19T03:44:31.759Z,92.1
2023-02-19T03:45:32.180Z,92.1
2023-02-19T03:46:31.778Z,92.0
2023-02-19T03:47:31.788Z,91.9
2023-02-19T03:48:31.808Z,91.7
2023-02-19T03:49:31.821Z,91.9
2023-02-19T03:50:31.832Z,91.9
2023-02-19T03:51:31.839Z,91.9
2023-02-19T03:52:31.833Z,91.9
2023-02-19T03:53:31.850Z,92.0
2023-02-19T03:54:31.883Z,92.0
2023-02-19T03:55:31.893Z,92.2
2023-02-19T03:56:31.914Z,92.3
2023-02-19T03:57:31.903Z,92.3
2023-02-19T03:58:31.921Z,92.2
2023-02-19T03:59:31.917Z,92.2
2023-02-19T04:00:31.973Z,92.2
2023-02-19T04:01:31.955Z,92.1
2023-02-19T04:02:32.133Z,92.2
2023-02-19T04:03:31.947Z,92.1
2023-02-19T04:04:32.148Z,92.0
2023-02-19T04:05:31.975Z,91.9
2023-02-19T04:06:32.064Z,91.8
2023-02-19T04:07:32.012Z,91.7
2023-02-19T04:08:32.008Z,91.7
2023-02-19T04:09:32.011Z,91.7
2023-02-19T04:10:32.046Z,91.6
2023-02-19T04:11:32.065Z,91.7
2023-02-19T04:12:32.036Z,91.8
2023-02-19T04:13:32.073Z,91.9
2023-02-19T04:14:32.082Z,92.0
2023-02-19T04:15:32.125Z,92.0
2023-02-19T04:16:32.177Z,91.8
2023-02-19T04:17:32.091Z,91.7
2023-02-19T04:18:32.124Z,91.8
2023-02-19T04:19:32.108Z,91.6
2023-02-19T04:20:32.128Z,91.6
2023-02-19T04:21:32.133Z,91.6
2023-02-19T04:22:32.125Z,91.6
2023-02-19T04:23:32.127Z,91.5
2023-02-19T04:24:32.146Z,91.5
2023-02-19T04:25:32.162Z,91.8
2023-02-19T04:26:32.150Z,91.6
2023-02-19T04:27:32.159Z,91.7
2023-02-19T04:28:32.171Z,91.4
2023-02-19T04:29:32.178Z,91.5
2023-02-19T04:30:32.472Z,91.8
2023-02-19T04:31:32.634Z,91.9
2023-02-19T04:32:32.206Z,92.1
2023-02-19T04:33:32.212Z,92.3
2023-02-19T04:34:32.256Z,92.4
2023-02-19T04:35:32.226Z,92.7
2023-02-19T04:36:32.254Z,92.8
2023-02-19T04:37:32.242Z,92.7
2023-02-19T04:38:32.255Z,92.7
2023-02-19T04:39:32.273Z,92.7
2023-02-19T04:40:32.279Z,92.8
2023-02-19T04:41:32.289Z,92.8
2023-02-19T04:42:32.297Z,93.0
2023-02-19T04:43:32.310Z,93.2
2023-02-19T04:44:32.311Z,93.4
2023-02-19T04:45:32.334Z,93.6
2023-02-19T04:46:32.348Z,93.8
2023-02-19T04:47:32.338Z,93.8
2023-02-19T04:48:32.365Z,93.9
2023-02-19T04:49:32.360Z,93.9
2023-02-19T04:50:32.375Z,93.9
2023-02-19T04:51:32.405Z,93.9
2023-02-19T04:52:32.395Z,93.9
2023-02-19T04:53:32.409Z,94.0
2023-02-19T04:54:32.496Z,94.0
2023-02-19T04:55:32.432Z,94.0
2023-02-19T04:56:32.456Z,94.0
2023-02-19T04:57:32.451Z,94.1
2023-02-19T04:58:32.463Z,94.2
2023-02-19T04:59:32.463Z,94.2
2023-02-19T05:00:32.486Z,94.3
2023-02-19T05:01:32.685Z,94.3
2023-02-19T05:02:32.491Z,94.3
2023-02-19T05:03:32.518Z,94.2
2023-02-19T05:04:32.777Z,94.1
2023-02-19T05:05:32.528Z,94.1
2023-02-19T05:06:32.525Z,94.1
2023-02-19T05:07:32.543Z,94.1
2023-02-19T05:08:32.552Z,94.0
2023-02-19T05:09:32.565Z,93.9
2023-02-19T05:10:32.568Z,94.1
2023-02-19T05:11:32.587Z,94.0
2023-02-19T05:12:32.611Z,93.9
2023-02-19T05:13:32.704Z,93.8
2023-02-19T05:14:32.642Z,93.8
2023-02-19T05:15:32.870Z,93.9
2023-02-19T05:16:32.644Z,94.0
2023-02-19T05:17:32.667Z,94.0
2023-02-19T05:18:32.692Z,94.1
2023-02-19T05:19:32.683Z,94.1
2023-02-19T05:20:32.699Z,94.2
2023-02-19T05:21:32.808Z,94.3
2023-02-19T05:22:32.710Z,94.4
2023-02-19T05:23:32.733Z,94.5
2023-02-19T05:24:32.736Z,94.5
2023-02-19T05:25:32.742Z,94.6
2023-02-19T05:26:32.750Z,94.6
2023-02-19T05:27:32.768Z,94.5
2023-02-19T05:28:32.795Z,94.6
2023-02-19T05:29:32.796Z,94.7
2023-02-19T05:30:32.970Z,94.7
2023-02-19T05:31:33.087Z,94.7
2023-02-19T05:32:32.819Z,94.8
2023-02-19T05:33:32.866Z,94.8
2023-02-19T05:34:32.848Z,95.0
2023-02-19T05:35:32.876Z,95.1
2023-02-19T05:36:32.863Z,95.2
2023-02-19T05:37:32.883Z,95.1
2023-02-19T05:38:32.903Z,95.0
2023-02-19T05:39:32.901Z,95.0
2023-02-19T05:40:32.918Z,95.1
2023-02-19T05:41:32.934Z,95.3
2023-02-19T05:42:32.929Z,95.3
2023-02-19T05:43:32.964Z,95.4
2023-02-19T05:44:32.952Z,95.5
2023-02-19T05:45:32.964Z,95.6
2023-02-19T05:46:33.090Z,95.5
2023-02-19T05:47:33.020Z,95.5
2023-02-19T05:48:32.997Z,95.4
2023-02-19T05:49:33.006Z,95.4
2023-02-19T05:50:33.007Z,95.5
2023-02-19T05:51:33.075Z,95.5
2023-02-19T05:52:33.076Z,95.5
2023-02-19T05:53:33.044Z,95.6
2023-02-19T05:54:33.061Z,95.7
2023-02-19T05:55:33.072Z,95.8
2023-02-19T05:56:33.102Z,95.8
2023-02-19T05:57:33.111Z,95.8
2023-02-19T05:58:33.104Z,95.8
2023-02-19T05:59:33.121Z,95.9
2023-02-19T06:00:33.144Z,95.8
2023-02-19T06:01:33.142Z,96.0
2023-02-19T06:02:33.220Z,96.0
2023-02-19T06:03:33.234Z,96.1
2023-02-19T06:04:33.172Z,96.2
2023-02-19T06:05:33.197Z,96.2
2023-02-19T06:06:33.198Z,96.2
2023-02-19T06:07:33.197Z,96.3
2023-02-19T06:08:33.208Z,96.3
2023-02-19T06:09:33.248Z,96.5
2023-02-19T06:10:33.226Z,96.4
2023-02-19T06:11:33.238Z,96.3
2023-02-19T06:12:33.311Z,96.3
2023-02-19T06:13:33.262Z,96.4
2023-02-19T06:14:33.283Z,96.4
2023-02-19T06:15:33.285Z,96.5
2023-02-19T06:16:33.309Z,96.5
2023-02-19T06:17:33.313Z,96.4
2023-02-19T06:18:33.335Z,96.4
2023-02-19T06:19:33.328Z,96.4
2023-02-19T06:20:33.343Z,96.4
2023-02-19T06:21:33.381Z,96.4
2023-02-19T06:22:33.363Z,96.5
2023-02-19T06:23:33.416Z,96.5
2023-02-19T06:24:33.373Z,96.5
2023-02-19T06:25:33.389Z,96.5
2023-02-19T06:26:33.449Z,96.6
2023-02-19T06:27:33.398Z,96.5
2023-02-19T06:28:33.413Z,96.6
2023-02-19T06:29:33.429Z,96.7
2023-02-19T06:30:33.798Z,96.7
2023-02-19T06:31:33.793Z,96.7
2023-02-19T06:32:33.659Z,96.8
2023-02-19T06:33:33.473Z,96.7
2023-02-19T06:34:33.499Z,96.7
2023-02-19T06:35:33.509Z,96.6
2023-02-19T06:36:33.516Z,96.7
2023-02-19T06:37:33.515Z,96.7
2023-02-19T06:38:33.532Z,96.8
2023-02-19T06:39:33.532Z,96.8
2023-02-19T06:40:33.537Z,96.8
2023-02-19T06:41:33.601Z,96.8
2023-02-19T06:42:33.755Z,96.8
2023-02-19T06:43:33.583Z,96.8
2023-02-19T06:44:33.591Z,96.8
2023-02-19T06:45:33.618Z,96.9
2023-02-19T06:46:33.709Z,96.8
2023-02-19T06:47:33.618Z,96.8
2023-02-19T06:48:33.645Z,96.7
2023-02-19T06:49:33.641Z,96.7
2023-02-19T06:50:33.656Z,96.7
2023-02-19T06:51:33.718Z,96.5
2023-02-19T06:52:33.683Z,96.6
2023-02-19T06:53:33.730Z,96.7
2023-02-19T06:54:33.699Z,96.7
2023-02-19T06:55:33.711Z,96.7
2023-02-19T06:56:33.739Z,96.7
2023-02-19T06:57:33.743Z,96.7
2023-02-19T06:58:33.778Z,96.8
2023-02-19T06:59:33.747Z,96.7
2023-02-19T07:00:33.919Z,96.8
2023-02-19T07:01:33.770Z,96.8
2023-02-19T07:02:33.777Z,96.8
2023-02-19T07:03:33.785Z,96.8
2023-02-19T07:04:33.797Z,96.8
2023-02-19T07:05:33.801Z,96.8
2023-02-19T07:06:33.799Z,96.7
2023-02-19T07:07:33.814Z,96.9
2023-02-19T07:08:33.839Z,96.8
2023-02-19T07:09:33.834Z,96.8
2023-02-19T07:10:33.840Z,96.7
2023-02-19T07:11:33.850Z,96.8
2023-02-19T07:12:33.860Z,96.7
2023-02-19T07:13:33.886Z,96.7
2023-02-19T07:14:33.860Z,96.6
2023-02-19T07:15:33.888Z,96.6
2023-02-19T07:16:34.051Z,96.6
2023-02-19T07:17:33.894Z,96.6
2023-02-19T07:18:33.898Z,96.6
2023-02-19T07:19:33.925Z,96.6
2023-02-19T07:20:33.927Z,96.6
2023-02-19T07:21:33.929Z,96.7
2023-02-19T07:22:33.958Z,96.7
2023-02-19T07:23:33.971Z,96.6
2023-02-19T07:24:33.957Z,96.6
2023-02-19T07:25:33.974Z,96.6
2023-02-19T07:26:34.004Z,96.5
2023-02-19T07:27:33.994Z,96.4
2023-02-19T07:28:34.014Z,96.4
2023-02-19T07:29:34.013Z,96.4
2023-02-19T07:30:34.241Z,96.4
2023-02-19T07:31:34.525Z,96.4
2023-02-19T07:32:34.053Z,96.4
2023-02-19T07:33:34.105Z,96.4
2023-02-19T07:34:34.081Z,96.3
2023-02-19T07:35:34.092Z,96.3
2023-02-19T07:36:34.097Z,96.3
2023-02-19T07:37:34.115Z,96.3
2023-02-19T07:38:34.159Z,96.2
2023-02-19T07:39:34.141Z,96.2
2023-02-19T07:40:34.142Z,96.1
2023-02-19T07:41:34.153Z,96.0
2023-02-19T07:42:34.176Z,96.0
2023-02-19T07:43:34.215Z,96.0
2023-02-19T07:44:34.190Z,95.9
2023-02-19T07:45:34.426Z,96.0
2023-02-19T07:46:34.261Z,96.0
2023-02-19T07:47:34.244Z,95.8
2023-02-19T07:48:34.313Z,95.9
2023-02-19T07:49:34.275Z,95.8
2023-02-19T07:50:34.261Z,95.9
2023-02-19T07:51:34.279Z,95.9
2023-02-19T07:52:34.281Z,95.9
2023-02-19T07:53:34.292Z,95.9
2023-02-19T07:54:34.301Z,95.9
2023-02-19T07:55:34.319Z,95.9
2023-02-19T07:56:34.316Z,95.8
2023-02-19T07:57:34.317Z,95.8
2023-02-19T07:58:34.366Z,95.7
2023-02-19T07:59:34.340Z,95.6
2023-02-19T08:00:34.358Z,95.5
2023-02-19T08:01:34.601Z,95.4
2023-02-19T08:02:34.407Z,95.5
2023-02-19T08:03:34.620Z,95.6
2023-02-19T08:04:34.398Z,95.7
2023-02-19T08:05:34.422Z,95.7
2023-02-19T08:06:34.419Z,95.8
2023-02-19T08:07:34.472Z,95.8
2023-02-19T08:08:34.455Z,95.7
2023-02-19T08:09:34.468Z,95.8
2023-02-19T08:10:34.472Z,95.8
2023-02-19T08:11:34.498Z,95.7
2023-02-19T08:12:34.512Z,95.7
2023-02-19T08:13:34.538Z,95.6
2023-02-19T08:14:34.516Z,95.6
2023-02-19T08:15:34.556Z,95.7
2023-02-19T08:16:43.665Z,95.7
2023-02-19T08:17:34.545Z,95.6
2023-02-19T08:18:34.578Z,95.6
2023-02-19T08:19:34.575Z,95.6
2023-02-19T08:20:34.590Z,95.5
2023-02-19T08:21:34.729Z,95.5
2023-02-19T08:22:34.600Z,95.5
2023-02-19T08:23:34.608Z,95.5
2023-02-19T08:24:34.616Z,95.5
2023-02-19T08:25:34.640Z,95.5
2023-02-19T08:26:34.646Z,95.5
2023-02-19T08:27:34.670Z,95.5
2023-02-19T08:28:34.648Z,95.4
2023-02-19T08:29:34.674Z,95.4
2023-02-19T08:30:35.060Z,95.4
2023-02-19T08:31:35.156Z,95.3
2023-02-19T08:32:34.716Z,95.3
2023-02-19T08:33:34.760Z,95.2
2023-02-19T08:34:34.724Z,95.2
2023-02-19T08:35:34.737Z,95.1
2023-02-19T08:36:34.774Z,95.2
2023-02-19T08:37:34.786Z,95.0
2023-02-19T08:38:34.804Z,95.1
2023-02-19T08:39:34.806Z,95.0
2023-02-19T08:40:34.802Z,95.0
2023-02-19T08:41:34.812Z,95.1
2023-02-19T08:42:34.834Z,95.1
2023-02-19T08:43:34.952Z,94.9
2023-02-19T08:44:34.896Z,94.9
2023-02-19T08:45:34.883Z,95.0
2023-02-19T08:46:34.894Z,95.0
2023-02-19T08:47:34.898Z,94.8
2023-02-19T08:48:34.938Z,94.8
2023-02-19T08:49:38.661Z,94.5
2023-02-19T08:50:34.911Z,94.6
2023-02-19T08:51:34.935Z,94.4
2023-02-19T08:52:34.940Z,94.3
2023-02-19T08:53:34.953Z,94.5
2023-02-19T08:54:37.455Z,94.5
2023-02-19T08:55:35.202Z,94.6
2023-02-19T08:56:35.039Z,94.0
2023-02-19T08:57:34.996Z,94.4
2023-02-19T08:58:35.021Z,94.4
2023-02-19T08:59:35.027Z,94.3
2023-02-19T09:00:35.096Z,94.5
2023-02-19T09:01:35.174Z,94.3
2023-02-19T09:02:35.070Z,94.2
2023-02-19T09:03:35.066Z,94.2
2023-02-19T09:04:35.091Z,94.0
2023-02-19T09:05:35.081Z,93.9
2023-02-19T09:06:35.104Z,93.5
2023-02-19T09:07:35.109Z,93.4
2023-02-19T09:08:35.136Z,93.5
2023-02-19T09:09:35.129Z,93.6
2023-02-19T09:10:35.143Z,93.7
2023-02-19T09:11:35.188Z,93.8
2023-02-19T09:12:35.510Z,93.8
2023-02-19T09:13:35.197Z,93.9
2023-02-19T09:14:35.218Z,93.8
2023-02-19T09:15:35.311Z,93.5
2023-02-19T09:16:35.231Z,93.8
2023-02-19T09:17:35.234Z,93.7
2023-02-19T09:18:35.252Z,93.6
2023-02-19T09:19:35.285Z,93.3
2023-02-19T09:20:35.291Z,93.1
2023-02-19T09:21:35.332Z,93.2
2023-02-19T09:22:35.321Z,93.3
2023-02-19T09:23:35.412Z,93.0
2023-02-19T09:24:35.345Z,92.9
2023-02-19T09:25:35.356Z,93.0
2023-02-19T09:26:38.864Z,93.0
2023-02-19T09:27:35.373Z,93.0
2023-02-19T09:28:35.444Z,92.8
2023-02-19T09:29:35.438Z,92.9
2023-02-19T09:30:35.541Z,92.9
2023-02-19T09:31:35.904Z,92.8
2023-02-19T09:32:35.476Z,92.5
2023-02-19T09:33:35.527Z,92.6
2023-02-19T09:34:35.485Z,92.0
2023-02-19T09:35:35.514Z,91.2
2023-02-19T09:36:35.504Z,91.6
2023-02-19T09:37:35.511Z,91.8
2023-02-19T09:38:35.542Z,91.9
2023-02-19T09:39:35.544Z,92.0
2023-02-19T09:40:35.563Z,91.9
2023-02-19T09:41:35.562Z,91.7
2023-02-19T09:42:35.580Z,91.1
2023-02-19T09:43:35.577Z,90.9
2023-02-19T09:44:35.616Z,90.9
2023-02-19T09:45:35.621Z,90.0
2023-02-19T09:46:35.626Z,89.2
2023-02-19T09:47:35.642Z,89.6
2023-02-19T09:48:35.647Z,89.6
2023-02-19T09:49:35.656Z,89.8
2023-02-19T09:50:35.662Z,89.4
2023-02-19T09:51:35.717Z,89.1
2023-02-19T09:52:36.146Z,88.6
2023-02-19T09:53:35.689Z,88.6
2023-02-19T09:54:35.735Z,86.8
2023-02-19T09:55:35.727Z,86.6
2023-02-19T09:56:35.752Z,86.4
2023-02-19T09:57:35.768Z,86.8
2023-02-19T09:58:35.788Z,84.7
2023-02-19T09:59:35.771Z,84.9
2023-02-19T10:00:35.779Z,83.3
2023-02-19T10:01:35.911Z,82.7
2023-02-19T10:02:35.848Z,83.3
2023-02-19T10:03:35.873Z,83.8
2023-02-19T10:04:35.868Z,83.9
2023-02-19T10:05:35.850Z,83.6
2023-02-19T10:06:35.872Z,83.2
2023-02-19T10:07:35.885Z,82.6
2023-02-19T10:08:35.889Z,82.2
2023-02-19T10:09:35.910Z,82.4
2023-02-19T10:10:36.026Z,82.1
2023-02-19T10:11:35.929Z,81.9
2023-02-19T10:12:35.939Z,81.7
2023-02-19T10:13:35.938Z,80.3
2023-02-19T10:14:35.955Z,80.6
2023-02-19T10:15:36.190Z,80.0
2023-02-19T10:16:35.976Z,79.9
2023-02-19T10:17:35.977Z,79.5
2023-02-19T10:18:36.006Z,79.6
2023-02-19T10:19:36.022Z,80.1
2023-02-19T10:20:36.030Z,80.4
2023-02-19T10:21:36.009Z,80.2
2023-02-19T10:22:36.022Z,81.3
2023-02-19T10:23:36.026Z,81.1
2023-02-19T10:24:38.713Z,80.4
2023-02-19T10:25:36.056Z,79.7
2023-02-19T10:26:36.067Z,78.9
2023-02-19T10:27:36.093Z,78.0
2023-02-19T10:28:36.115Z,78.9
2023-02-19T10:29:36.104Z,77.6
2023-02-19T10:30:36.428Z,78.8
2023-02-19T10:31:36.646Z,76.6
2023-02-19T10:32:36.148Z,76.9
2023-02-19T10:33:36.147Z,77.0
2023-02-19T10:34:36.193Z,77.5
2023-02-19T10:35:36.186Z,76.7
2023-02-19T10:36:36.197Z,75.8
2023-02-19T10:37:36.202Z,75.8
2023-02-19T10:38:36.237Z,75.7
2023-02-19T10:39:36.219Z,75.6
2023-02-19T10:40:36.221Z,76.4
2023-02-19T10:41:36.226Z,75.8
2023-02-19T10:42:36.255Z,72.9
2023-02-19T10:43:36.256Z,73.2
2023-02-19T10:44:36.265Z,73.1
2023-02-19T10:45:36.279Z,73.9
2023-02-19T10:46:36.472Z,72.1
2023-02-19T10:47:36.318Z,73.7
2023-02-19T10:48:36.342Z,73.4
2023-02-19T10:49:36.334Z,72.6
2023-02-19T10:50:36.384Z,73.0
2023-02-19T10:51:36.378Z,72.2
2023-02-19T10:52:36.425Z,72.0
2023-02-19T10:53:36.388Z,72.0
2023-02-19T10:54:36.415Z,72.4
2023-02-19T10:55:38.351Z,72.5
2023-02-19T10:56:36.426Z,71.9
2023-02-19T10:57:36.448Z,70.6
2023-02-19T10:58:36.454Z,70.8
2023-02-19T10:59:36.480Z,70.2
2023-02-19T11:00:36.474Z,70.5
2023-02-19T11:01:36.566Z,70.1
2023-02-19T11:02:36.515Z,70.9
2023-02-19T11:03:36.519Z,70.8
2023-02-19T11:04:36.678Z,69.3
2023-02-19T11:05:36.549Z,67.7
2023-02-19T11:06:36.589Z,68.0
2023-02-19T11:07:36.600Z,68.4
2023-02-19T11:08:36.631Z,68.0
2023-02-19T11:09:36.602Z,68.7
2023-02-19T11:10:36.640Z,69.9
2023-02-19T11:11:36.669Z,67.4
2023-02-19T11:12:36.658Z,68.1
2023-02-19T11:13:36.657Z,69.0
2023-02-19T11:14:36.692Z,69.2
2023-02-19T11:15:36.679Z,68.8
2023-02-19T11:16:36.690Z,69.4
2023-02-19T11:17:36.707Z,67.5
2023-02-19T11:18:36.716Z,68.5
2023-02-19T11:19:36.722Z,68.8
2023-02-19T11:20:36.745Z,68.3
2023-02-19T11:21:36.739Z,68.6
2023-02-19T11:22:36.759Z,68.7
2023-02-19T11:23:36.763Z,69.1
2023-02-19T11:24:36.771Z,68.6
2023-02-19T11:25:36.772Z,67.7
2023-02-19T11:26:36.784Z,69.6
2023-02-19T11:27:36.805Z,68.4
2023-02-19T11:28:36.843Z,66.9
2023-02-19T11:29:36.849Z,67.0
2023-02-19T11:30:37.075Z,68.0
2023-02-19T11:31:37.212Z,66.8
2023-02-19T11:32:36.867Z,66.7
2023-02-19T11:33:36.879Z,65.8
2023-02-19T11:34:37.228Z,67.0
2023-02-19T11:35:36.906Z,66.1
2023-02-19T11:36:36.944Z,66.0
2023-02-19T11:37:36.927Z,66.7
2023-02-19T11:38:36.976Z,66.6
2023-02-19T11:39:37.033Z,67.1
2023-02-19T11:40:36.962Z,65.6
2023-02-19T11:41:36.976Z,65.5
2023-02-19T11:42:36.999Z,65.6
2023-02-19T11:43:37.037Z,64.6
2023-02-19T11:44:37.062Z,64.1
2023-02-19T11:45:37.043Z,64.1
2023-02-19T11:46:37.199Z,63.4
2023-02-19T11:47:37.058Z,64.2
2023-02-19T11:48:37.058Z,65.9
2023-02-19T11:49:37.083Z,65.5
2023-02-19T11:50:37.096Z,64.6
2023-02-19T11:51:37.107Z,64.8
2023-02-19T11:52:37.145Z,64.4
2023-02-19T11:53:37.140Z,65.0
2023-02-19T11:54:37.139Z,65.7
2023-02-19T11:55:37.153Z,65.6
2023-02-19T11:56:37.230Z,64.5
2023-02-19T11:57:37.196Z,65.4
2023-02-19T11:58:37.170Z,64.4
2023-02-19T11:59:37.195Z,63.9
2023-02-19T12:00:37.195Z,62.2
2023-02-19T12:01:37.418Z,62.6
2023-02-19T12:02:37.208Z,62.6
2023-02-19T12:03:37.215Z,63.1
2023-02-19T12:04:38.051Z,63.0
2023-02-19T12:05:37.303Z,63.2
2023-02-19T12:06:37.259Z,63.7
2023-02-19T12:07:37.264Z,62.0
2023-02-19T12:08:37.297Z,61.5
2023-02-19T12:09:37.305Z,62.5
2023-02-19T12:10:37.331Z,60.9
2023-02-19T12:11:37.318Z,59.8
2023-02-19T12:12:38.161Z,59.7
2023-02-19T12:13:37.329Z,60.3
2023-02-19T12:14:37.357Z,60.1
2023-02-19T12:15:37.367Z,60.3
2023-02-19T12:16:37.517Z,61.4
2023-02-19T12:17:37.552Z,61.8
2023-02-19T12:18:37.432Z,62.2
2023-02-19T12:19:37.421Z,62.6
2023-02-19T12:20:37.461Z,62.4
2023-02-19T12:21:37.476Z,61.7
2023-02-19T12:22:37.457Z,60.9
2023-02-19T12:23:37.474Z,60.4
2023-02-19T12:24:37.479Z,59.8
2023-02-19T12:25:37.484Z,58.4
2023-02-19T12:26:37.505Z,58.6
2023-02-19T12:27:37.506Z,59.0
2023-02-19T12:28:37.524Z,58.9
2023-02-19T12:29:37.526Z,59.3
2023-02-19T12:30:37.692Z,59.4
2023-02-19T12:31:37.669Z,57.9
2023-02-19T12:32:37.577Z,57.8
2023-02-19T12:33:37.582Z,58.3
2023-02-19T12:34:37.594Z,58.4
2023-02-19T12:35:37.606Z,59.1
2023-02-19T12:36:37.629Z,60.0
2023-02-19T12:37:37.636Z,58.9
2023-02-19T12:38:37.654Z,59.8
2023-02-19T12:39:37.666Z,59.3
2023-02-19T12:40:37.694Z,59.9
2023-02-19T12:41:37.684Z,59.7
2023-02-19T12:42:37.704Z,59.5
2023-02-19T12:43:37.723Z,59.6
2023-02-19T12:44:37.825Z,59.8
2023-02-19T12:45:37.924Z,60.0
2023-02-19T12:46:37.758Z,59.2
2023-02-19T12:47:37.766Z,58.8
2023-02-19T12:48:37.781Z,59.6
2023-02-19T12:49:37.810Z,60.0
2023-02-19T12:50:37.796Z,59.3
2023-02-19T12:51:37.802Z,58.8
2023-02-19T12:52:37.840Z,58.8
2023-02-19T12:53:37.826Z,59.5
2023-02-19T12:54:37.834Z,58.7
2023-02-19T12:55:37.853Z,59.5
2023-02-19T12:56:37.870Z,59.4
2023-02-19T12:57:37.872Z,60.1
2023-02-19T12:58:37.879Z,59.4
2023-02-19T12:59:37.894Z,59.8
2023-02-19T13:00:37.912Z,58.6
2023-02-19T13:01:37.931Z,59.6
2023-02-19T13:02:38.127Z,59.7
2023-02-19T13:03:37.952Z,60.1
2023-02-19T13:04:37.958Z,58.7
2023-02-19T13:05:37.982Z,59.2
2023-02-19T13:06:38.022Z,59.2
2023-02-19T13:07:38.038Z,59.1
2023-02-19T13:09:05.670Z,59.0
2023-02-19T13:09:38.038Z,59.3
2023-02-19T13:10:38.032Z,59.6
2023-02-19T13:11:38.174Z,59.6
2023-02-19T13:12:38.054Z,60.1
2023-02-19T13:13:38.064Z,60.5
2023-02-19T13:14:38.082Z,61.3
2023-02-19T13:15:38.099Z,61.2
2023-02-19T13:16:38.251Z,61.2
2023-02-19T13:17:38.120Z,61.1
2023-02-19T13:18:38.136Z,60.0
2023-02-19T13:19:38.149Z,60.3
2023-02-19T13:20:38.158Z,60.5
2023-02-19T13:21:38.158Z,60.6
2023-02-19T13:22:38.167Z,60.3
2023-02-19T13:23:38.181Z,60.9
2023-02-19T13:24:38.178Z,61.5
2023-02-19T13:25:38.193Z,61.2
2023-02-19T13:26:38.218Z,61.4
2023-02-19T13:27:41.878Z,62.1
2023-02-19T13:28:38.236Z,61.5
2023-02-19T13:29:38.240Z,61.7
2023-02-19T13:30:38.658Z,62.0
2023-02-19T13:31:38.719Z,62.4
2023-02-19T13:32:38.268Z,61.9
2023-02-19T13:33:38.293Z,62.1
2023-02-19T13:34:38.312Z,62.1
2023-02-19T13:35:38.311Z,63.0